sensor_id;sensor_type;location;lat;lon;timestamp;P1;durP1;ratioP1;P2;durP2;ratioP2
46110;SDS011;31849;55.992;37.252;2023-02-22T00:03:29;30.13;;;11.50;;
46110;SDS011;31849;55.992;37.252;2023-02-22T00:08:37;36.90;;;12.43;;
46110;SDS011;31849;55.992;37.252;2023-02-22T00:13:41;31.33;;;12.20;;
46110;SDS011;31849;55.992;37.252;2023-02-22T00:18:45;28.80;;;12.73;;
46110;SDS011;31849;55.992;37.252;2023-02-22T00:23:50;28.40;;;11.80;;
46110;SDS011;31849;55.992;37.252;2023-02-22T00:28:55;35.70;;;12.17;;
46110;SDS011;31849;55.992;37.252;2023-02-22T00:33:58;35.65;;;12.32;;
46110;SDS011;31849;55.992;37.252;2023-02-22T00:39:03;31.73;;;12.20;;
46110;SDS011;31849;55.992;37.252;2023-02-22T00:44:08;37.17;;;13.43;;
46110;SDS011;31849;55.992;37.252;2023-02-22T00:49:12;29.17;;;12.23;;
46110;SDS011;31849;55.992;37.252;2023-02-22T00:54:17;28.08;;;11.13;;
46110;SDS011;31849;55.992;37.252;2023-02-22T00:59:21;30.90;;;11.63;;
46110;SDS011;31849;55.992;37.252;2023-02-22T01:04:24;27.92;;;9.48;;
46110;SDS011;31849;55.992;37.252;2023-02-22T01:09:29;29.98;;;12.52;;
46110;SDS011;31849;55.992;37.252;2023-02-22T01:14:33;34.77;;;12.80;;
46110;SDS011;31849;55.992;37.252;2023-02-22T01:19:37;26.25;;;10.82;;
46110;SDS011;31849;55.992;37.252;2023-02-22T01:24:44;26.13;;;11.10;;
46110;SDS011;31849;55.992;37.252;2023-02-22T01:29:48;26.63;;;9.60;;
46110;SDS011;31849;55.992;37.252;2023-02-22T01:34:51;31.08;;;11.63;;
46110;SDS011;31849;55.992;37.252;2023-02-22T01:39:57;25.20;;;10.88;;
46110;SDS011;31849;55.992;37.252;2023-02-22T01:50:38;28.87;;;11.13;;
46110;SDS011;31849;55.992;37.252;2023-02-22T01:55:47;30.50;;;10.17;;
46110;SDS011;31849;55.992;37.252;2023-02-22T02:00:52;28.37;;;12.73;;
46110;SDS011;31849;55.992;37.252;2023-02-22T02:05:57;34.22;;;12.00;;
46110;SDS011;31849;55.992;37.252;2023-02-22T02:11:05;32.00;;;10.60;;
46110;SDS011;31849;55.992;37.252;2023-02-22T02:16:10;29.33;;;10.93;;
46110;SDS011;31849;55.992;37.252;2023-02-22T02:32:23;26.10;;;9.97;;
46110;SDS011;31849;55.992;37.252;2023-02-22T02:37:39;20.60;;;8.97;;
46110;SDS011;31849;55.992;37.252;2023-02-22T02:42:53;33.00;;;11.75;;
46110;SDS011;31849;55.992;37.252;2023-02-22T02:48:04;23.93;;;11.20;;
46110;SDS011;31849;55.992;37.252;2023-02-22T02:53:10;26.80;;;9.63;;
46110;SDS011;31849;55.992;37.252;2023-02-22T02:58:19;31.93;;;10.97;;
46110;SDS011;31849;55.992;37.252;2023-02-22T03:03:31;30.23;;;12.17;;
46110;SDS011;31849;55.992;37.252;2023-02-22T03:08:53;31.10;;;10.93;;
46110;SDS011;31849;55.992;37.252;2023-02-22T03:14:10;29.67;;;9.80;;
46110;SDS011;31849;55.992;37.252;2023-02-22T03:19:20;31.90;;;11.37;;
46110;SDS011;31849;55.992;37.252;2023-02-22T03:24:30;29.97;;;10.00;;
46110;SDS011;31849;55.992;37.252;2023-02-22T03:29:40;24.77;;;11.43;;
46110;SDS011;31849;55.992;37.252;2023-02-22T03:34:49;31.53;;;11.50;;
46110;SDS011;31849;55.992;37.252;2023-02-22T03:40:00;26.53;;;10.70;;
46110;SDS011;31849;55.992;37.252;2023-02-22T03:45:15;24.80;;;9.93;;
46110;SDS011;31849;55.992;37.252;2023-02-22T03:50:24;29.37;;;10.53;;
46110;SDS011;31849;55.992;37.252;2023-02-22T03:55:30;24.40;;;9.80;;
46110;SDS011;31849;55.992;37.252;2023-02-22T04:00:34;25.55;;;10.60;;
46110;SDS011;31849;55.992;37.252;2023-02-22T04:10:42;29.93;;;10.97;;
46110;SDS011;31849;55.992;37.252;2023-02-22T04:20:51;29.67;;;10.50;;
46110;SDS011;31849;55.992;37.252;2023-02-22T04:25:54;24.40;;;9.90;;
46110;SDS011;31849;55.992;37.252;2023-02-22T04:30:58;25.92;;;10.10;;
46110;SDS011;31849;55.992;37.252;2023-02-22T04:36:03;22.20;;;9.75;;
46110;SDS011;31849;55.992;37.252;2023-02-22T04:41:07;27.77;;;10.67;;
46110;SDS011;31849;55.992;37.252;2023-02-22T04:46:10;22.60;;;10.50;;
46110;SDS011;31849;55.992;37.252;2023-02-22T04:51:16;29.47;;;10.57;;
46110;SDS011;31849;55.992;37.252;2023-02-22T04:56:20;25.77;;;10.47;;
46110;SDS011;31849;55.992;37.252;2023-02-22T05:01:24;30.92;;;10.30;;
46110;SDS011;31849;55.992;37.252;2023-02-22T05:06:28;27.48;;;10.40;;
46110;SDS011;31849;55.992;37.252;2023-02-22T05:11:32;29.70;;;10.60;;
46110;SDS011;31849;55.992;37.252;2023-02-22T05:16:36;24.90;;;9.38;;
46110;SDS011;31849;55.992;37.252;2023-02-22T05:21:41;26.70;;;9.63;;
46110;SDS011;31849;55.992;37.252;2023-02-22T05:26:44;27.30;;;9.17;;
46110;SDS011;31849;55.992;37.252;2023-02-22T05:31:48;23.05;;;10.02;;
46110;SDS011;31849;55.992;37.252;2023-02-22T05:36:53;30.90;;;10.65;;
46110;SDS011;31849;55.992;37.252;2023-02-22T05:41:56;32.00;;;12.00;;
46110;SDS011;31849;55.992;37.252;2023-02-22T05:47:00;24.38;;;11.07;;
46110;SDS011;31849;55.992;37.252;2023-02-22T05:52:05;32.33;;;10.55;;
46110;SDS011;31849;55.992;37.252;2023-02-22T05:57:08;28.53;;;9.77;;
46110;SDS011;31849;55.992;37.252;2023-02-22T06:02:12;27.13;;;10.27;;
46110;SDS011;31849;55.992;37.252;2023-02-22T06:07:17;28.55;;;11.07;;
46110;SDS011;31849;55.992;37.252;2023-02-22T06:12:20;29.57;;;11.30;;
46110;SDS011;31849;55.992;37.252;2023-02-22T06:17:24;28.42;;;11.30;;
46110;SDS011;31849;55.992;37.252;2023-02-22T06:22:29;22.63;;;10.82;;
46110;SDS011;31849;55.992;37.252;2023-02-22T06:27:33;25.87;;;11.90;;
46110;SDS011;31849;55.992;37.252;2023-02-22T06:32:37;26.23;;;12.20;;
46110;SDS011;31849;55.992;37.252;2023-02-22T06:37:42;26.63;;;11.97;;
46110;SDS011;31849;55.992;37.252;2023-02-22T06:42:46;32.70;;;14.73;;
46110;SDS011;31849;55.992;37.252;2023-02-22T06:47:51;26.83;;;11.10;;
46110;SDS011;31849;55.992;37.252;2023-02-22T06:52:55;26.50;;;13.02;;
46110;SDS011;31849;55.992;37.252;2023-02-22T06:58:00;25.20;;;13.07;;
46110;SDS011;31849;55.992;37.252;2023-02-22T07:03:04;21.30;;;11.85;;
46110;SDS011;31849;55.992;37.252;2023-02-22T07:08:09;25.73;;;12.77;;
46110;SDS011;31849;55.992;37.252;2023-02-22T07:13:13;26.05;;;12.85;;
46110;SDS011;31849;55.992;37.252;2023-02-22T07:18:17;26.42;;;13.77;;
46110;SDS011;31849;55.992;37.252;2023-02-22T07:23:22;22.45;;;13.63;;
46110;SDS011;31849;55.992;37.252;2023-02-22T07:28:26;21.33;;;12.70;;
46110;SDS011;31849;55.992;37.252;2023-02-22T07:33:29;23.17;;;13.68;;
46110;SDS011;31849;55.992;37.252;2023-02-22T07:38:35;22.35;;;12.70;;
46110;SDS011;31849;55.992;37.252;2023-02-22T07:48:42;23.30;;;13.65;;
46110;SDS011;31849;55.992;37.252;2023-02-22T07:53:47;20.30;;;12.52;;
46110;SDS011;31849;55.992;37.252;2023-02-22T08:03:53;22.67;;;13.10;;
46110;SDS011;31849;55.992;37.252;2023-02-22T08:08:59;19.42;;;12.75;;
46110;SDS011;31849;55.992;37.252;2023-02-22T08:19:05;18.77;;;12.10;;
46110;SDS011;31849;55.992;37.252;2023-02-22T08:24:10;19.38;;;11.80;;
46110;SDS011;31849;55.992;37.252;2023-02-22T08:34:17;18.17;;;12.35;;
46110;SDS011;31849;55.992;37.252;2023-02-22T08:39:21;20.83;;;11.82;;
46110;SDS011;31849;55.992;37.252;2023-02-22T08:44:25;19.63;;;12.50;;
46110;SDS011;31849;55.992;37.252;2023-02-22T08:49:28;20.10;;;13.13;;
46110;SDS011;31849;55.992;37.252;2023-02-22T08:54:33;17.45;;;10.82;;
46110;SDS011;31849;55.992;37.252;2023-02-22T08:59:37;21.52;;;11.50;;
46110;SDS011;31849;55.992;37.252;2023-02-22T09:04:40;20.50;;;12.40;;
46110;SDS011;31849;55.992;37.252;2023-02-22T09:09:45;18.60;;;11.18;;
46110;SDS011;31849;55.992;37.252;2023-02-22T09:14:49;22.02;;;11.25;;
46110;SDS011;31849;55.992;37.252;2023-02-22T09:19:53;19.48;;;11.25;;
46110;SDS011;31849;55.992;37.252;2023-02-22T09:24:58;23.80;;;11.03;;
46110;SDS011;31849;55.992;37.252;2023-02-22T09:30:17;22.52;;;9.95;;
46110;SDS011;31849;55.992;37.252;2023-02-22T09:35:24;20.83;;;10.20;;
46110;SDS011;31849;55.992;37.252;2023-02-22T09:40:30;22.23;;;11.20;;
46110;SDS011;31849;55.992;37.252;2023-02-22T09:45:43;21.65;;;10.35;;
46110;SDS011;31849;55.992;37.252;2023-02-22T09:56:16;21.50;;;9.32;;
46110;SDS011;31849;55.992;37.252;2023-02-22T10:01:24;19.50;;;9.15;;
46110;SDS011;31849;55.992;37.252;2023-02-22T10:06:33;18.47;;;9.00;;
46110;SDS011;31849;55.992;37.252;2023-02-22T10:11:46;20.52;;;8.95;;
46110;SDS011;31849;55.992;37.252;2023-02-22T10:16:55;22.33;;;10.67;;
46110;SDS011;31849;55.992;37.252;2023-02-22T10:22:19;20.83;;;10.43;;
46110;SDS011;31849;55.992;37.252;2023-02-22T10:27:32;27.17;;;10.53;;
46110;SDS011;31849;55.992;37.252;2023-02-22T10:32:42;21.97;;;10.23;;
46110;SDS011;31849;55.992;37.252;2023-02-22T10:37:50;20.00;;;10.00;;
46110;SDS011;31849;55.992;37.252;2023-02-22T10:42:58;18.90;;;9.37;;
46110;SDS011;31849;55.992;37.252;2023-02-22T10:48:04;22.63;;;9.47;;
46110;SDS011;31849;55.992;37.252;2023-02-22T10:53:12;20.50;;;9.73;;
46110;SDS011;31849;55.992;37.252;2023-02-22T10:58:18;18.33;;;9.73;;
46110;SDS011;31849;55.992;37.252;2023-02-22T11:03:22;20.10;;;9.40;;
46110;SDS011;31849;55.992;37.252;2023-02-22T11:08:27;23.27;;;9.50;;
46110;SDS011;31849;55.992;37.252;2023-02-22T11:13:36;18.77;;;9.50;;
46110;SDS011;31849;55.992;37.252;2023-02-22T11:18:41;23.23;;;9.67;;
46110;SDS011;31849;55.992;37.252;2023-02-22T11:23:44;18.87;;;9.63;;
46110;SDS011;31849;55.992;37.252;2023-02-22T11:28:50;22.60;;;9.97;;
46110;SDS011;31849;55.992;37.252;2023-02-22T11:33:57;22.73;;;8.93;;
46110;SDS011;31849;55.992;37.252;2023-02-22T11:39:03;19.70;;;8.53;;
46110;SDS011;31849;55.992;37.252;2023-02-22T11:44:20;20.57;;;8.37;;
46110;SDS011;31849;55.992;37.252;2023-02-22T11:49:31;19.93;;;8.43;;
46110;SDS011;31849;55.992;37.252;2023-02-22T11:54:42;22.80;;;9.37;;
46110;SDS011;31849;55.992;37.252;2023-02-22T12:00:09;23.00;;;9.80;;
46110;SDS011;31849;55.992;37.252;2023-02-22T12:05:27;18.43;;;9.63;;
46110;SDS011;31849;55.992;37.252;2023-02-22T12:10:44;19.60;;;8.97;;
46110;SDS011;31849;55.992;37.252;2023-02-22T12:16:00;20.57;;;10.17;;
46110;SDS011;31849;55.992;37.252;2023-02-22T12:21:12;22.37;;;9.80;;
46110;SDS011;31849;55.992;37.252;2023-02-22T12:26:19;21.20;;;9.67;;
46110;SDS011;31849;55.992;37.252;2023-02-22T12:31:29;20.37;;;8.53;;
46110;SDS011;31849;55.992;37.252;2023-02-22T12:36:38;19.07;;;8.60;;
46110;SDS011;31849;55.992;37.252;2023-02-22T12:41:47;18.10;;;8.07;;
46110;SDS011;31849;55.992;37.252;2023-02-22T12:46:57;17.07;;;7.87;;
46110;SDS011;31849;55.992;37.252;2023-02-22T12:52:06;19.20;;;8.10;;
46110;SDS011;31849;55.992;37.252;2023-02-22T12:57:24;17.53;;;7.77;;
46110;SDS011;31849;55.992;37.252;2023-02-22T13:02:41;19.03;;;7.83;;
46110;SDS011;31849;55.992;37.252;2023-02-22T13:07:48;18.90;;;8.63;;
46110;SDS011;31849;55.992;37.252;2023-02-22T13:13:05;19.87;;;7.40;;
46110;SDS011;31849;55.992;37.252;2023-02-22T13:18:19;22.90;;;7.85;;
46110;SDS011;31849;55.992;37.252;2023-02-22T13:23:33;14.53;;;6.87;;
46110;SDS011;31849;55.992;37.252;2023-02-22T13:28:45;20.40;;;7.30;;
46110;SDS011;31849;55.992;37.252;2023-02-22T13:34:00;17.87;;;7.47;;
46110;SDS011;31849;55.992;37.252;2023-02-22T13:50:32;19.33;;;8.23;;
46110;SDS011;31849;55.992;37.252;2023-02-22T13:55:52;15.98;;;6.75;;
46110;SDS011;31849;55.992;37.252;2023-02-22T14:00:58;14.47;;;6.17;;
46110;SDS011;31849;55.992;37.252;2023-02-22T14:06:04;15.95;;;7.32;;
46110;SDS011;31849;55.992;37.252;2023-02-22T14:22:27;17.60;;;7.37;;
46110;SDS011;31849;55.992;37.252;2023-02-22T14:27:37;18.50;;;7.57;;
46110;SDS011;31849;55.992;37.252;2023-02-22T14:32:42;17.10;;;7.40;;
46110;SDS011;31849;55.992;37.252;2023-02-22T14:37:52;14.93;;;6.90;;
46110;SDS011;31849;55.992;37.252;2023-02-22T14:43:00;15.73;;;6.97;;
46110;SDS011;31849;55.992;37.252;2023-02-22T14:48:11;18.43;;;7.87;;
46110;SDS011;31849;55.992;37.252;2023-02-22T14:53:25;16.83;;;8.20;;
46110;SDS011;31849;55.992;37.252;2023-02-22T14:58:34;16.70;;;7.87;;
46110;SDS011;31849;55.992;37.252;2023-02-22T15:03:42;20.07;;;8.03;;
46110;SDS011;31849;55.992;37.252;2023-02-22T15:08:48;18.52;;;7.78;;
46110;SDS011;31849;55.992;37.252;2023-02-22T15:14:13;18.47;;;8.03;;
46110;SDS011;31849;55.992;37.252;2023-02-22T15:19:27;16.37;;;7.37;;
46110;SDS011;31849;55.992;37.252;2023-02-22T15:24:35;18.50;;;8.17;;
46110;SDS011;31849;55.992;37.252;2023-02-22T15:29:41;19.57;;;8.63;;
46110;SDS011;31849;55.992;37.252;2023-02-22T15:34:46;20.33;;;8.27;;
46110;SDS011;31849;55.992;37.252;2023-02-22T15:39:51;19.40;;;8.38;;
46110;SDS011;31849;55.992;37.252;2023-02-22T15:45:00;17.30;;;7.63;;
46110;SDS011;31849;55.992;37.252;2023-02-22T15:55:20;18.63;;;8.60;;
46110;SDS011;31849;55.992;37.252;2023-02-22T16:00:27;21.83;;;9.03;;
46110;SDS011;31849;55.992;37.252;2023-02-22T16:05:37;18.67;;;8.13;;
46110;SDS011;31849;55.992;37.252;2023-02-22T16:10:48;17.23;;;7.97;;
46110;SDS011;31849;55.992;37.252;2023-02-22T16:15:56;21.60;;;9.33;;
46110;SDS011;31849;55.992;37.252;2023-02-22T16:21:04;22.27;;;8.63;;
46110;SDS011;31849;55.992;37.252;2023-02-22T16:26:24;19.07;;;8.73;;
46110;SDS011;31849;55.992;37.252;2023-02-22T16:31:30;19.00;;;8.67;;
46110;SDS011;31849;55.992;37.252;2023-02-22T16:36:36;20.63;;;9.40;;
46110;SDS011;31849;55.992;37.252;2023-02-22T16:41:42;20.23;;;8.93;;
46110;SDS011;31849;55.992;37.252;2023-02-22T16:46:46;23.53;;;9.23;;
46110;SDS011;31849;55.992;37.252;2023-02-22T16:51:50;20.40;;;7.80;;
46110;SDS011;31849;55.992;37.252;2023-02-22T16:56:57;22.90;;;8.63;;
46110;SDS011;31849;55.992;37.252;2023-02-22T17:02:02;20.23;;;8.43;;
46110;SDS011;31849;55.992;37.252;2023-02-22T17:07:08;21.73;;;8.73;;
46110;SDS011;31849;55.992;37.252;2023-02-22T17:12:13;22.83;;;9.15;;
46110;SDS011;31849;55.992;37.252;2023-02-22T17:17:16;22.13;;;8.63;;
46110;SDS011;31849;55.992;37.252;2023-02-22T17:22:20;22.73;;;8.57;;
46110;SDS011;31849;55.992;37.252;2023-02-22T17:27:26;20.77;;;9.13;;
46110;SDS011;31849;55.992;37.252;2023-02-22T17:32:29;22.03;;;9.70;;
46110;SDS011;31849;55.992;37.252;2023-02-22T17:37:33;17.50;;;8.52;;
46110;SDS011;31849;55.992;37.252;2023-02-22T17:42:38;18.63;;;6.80;;
46110;SDS011;31849;55.992;37.252;2023-02-22T17:47:41;25.33;;;9.80;;
46110;SDS011;31849;55.992;37.252;2023-02-22T17:57:54;17.43;;;8.47;;
46110;SDS011;31849;55.992;37.252;2023-02-22T18:02:59;22.50;;;8.10;;
46110;SDS011;31849;55.992;37.252;2023-02-22T18:08:04;13.60;;;6.97;;
46110;SDS011;31849;55.992;37.252;2023-02-22T18:13:09;16.98;;;7.50;;
46110;SDS011;31849;55.992;37.252;2023-02-22T18:18:17;16.87;;;6.70;;
46110;SDS011;31849;55.992;37.252;2023-02-22T18:23:22;14.70;;;7.30;;
46110;SDS011;31849;55.992;37.252;2023-02-22T18:28:29;16.70;;;6.50;;
46110;SDS011;31849;55.992;37.252;2023-02-22T18:33:33;16.60;;;7.33;;
46110;SDS011;31849;55.992;37.252;2023-02-22T18:38:36;17.48;;;6.55;;
46110;SDS011;31849;55.992;37.252;2023-02-22T18:43:45;16.23;;;7.33;;
46110;SDS011;31849;55.992;37.252;2023-02-22T18:48:50;13.70;;;6.47;;
46110;SDS011;31849;55.992;37.252;2023-02-22T18:53:55;12.63;;;6.57;;
46110;SDS011;31849;55.992;37.252;2023-02-22T18:59:03;17.47;;;7.33;;
46110;SDS011;31849;55.992;37.252;2023-02-22T19:04:07;17.17;;;6.77;;
46110;SDS011;31849;55.992;37.252;2023-02-22T19:09:12;15.83;;;6.57;;
46110;SDS011;31849;55.992;37.252;2023-02-22T19:14:17;12.73;;;6.07;;
46110;SDS011;31849;55.992;37.252;2023-02-22T19:19:21;22.37;;;6.90;;
46110;SDS011;31849;55.992;37.252;2023-02-22T19:24:27;16.63;;;6.47;;
46110;SDS011;31849;55.992;37.252;2023-02-22T19:29:32;14.85;;;6.80;;
46110;SDS011;31849;55.992;37.252;2023-02-22T19:34:38;14.33;;;6.40;;
46110;SDS011;31849;55.992;37.252;2023-02-22T19:39:44;16.03;;;6.30;;
46110;SDS011;31849;55.992;37.252;2023-02-22T19:44:49;16.47;;;7.03;;
46110;SDS011;31849;55.992;37.252;2023-02-22T19:49:53;13.77;;;6.80;;
46110;SDS011;31849;55.992;37.252;2023-02-22T19:55:00;12.53;;;5.63;;
46110;SDS011;31849;55.992;37.252;2023-02-22T20:00:06;11.88;;;6.00;;
46110;SDS011;31849;55.992;37.252;2023-02-22T20:05:12;13.93;;;5.73;;
46110;SDS011;31849;55.992;37.252;2023-02-22T20:10:17;15.83;;;5.97;;
46110;SDS011;31849;55.992;37.252;2023-02-22T20:15:22;13.95;;;5.80;;
46110;SDS011;31849;55.992;37.252;2023-02-22T20:20:25;13.87;;;6.07;;
46110;SDS011;31849;55.992;37.252;2023-02-22T20:25:31;15.10;;;6.23;;
46110;SDS011;31849;55.992;37.252;2023-02-22T20:30:37;16.53;;;6.23;;
46110;SDS011;31849;55.992;37.252;2023-02-22T20:35:40;14.83;;;5.90;;
46110;SDS011;31849;55.992;37.252;2023-02-22T20:40:44;12.52;;;6.45;;
46110;SDS011;31849;55.992;37.252;2023-02-22T20:45:50;14.07;;;6.00;;
46110;SDS011;31849;55.992;37.252;2023-02-22T20:50:53;16.70;;;6.70;;
46110;SDS011;31849;55.992;37.252;2023-02-22T20:55:57;12.85;;;7.72;;
46110;SDS011;31849;55.992;37.252;2023-02-22T21:01:05;14.35;;;6.07;;
46110;SDS011;31849;55.992;37.252;2023-02-22T21:06:13;17.83;;;6.77;;
46110;SDS011;31849;55.992;37.252;2023-02-22T21:11:18;15.73;;;6.80;;
46110;SDS011;31849;55.992;37.252;2023-02-22T21:16:24;13.47;;;6.63;;
46110;SDS011;31849;55.992;37.252;2023-02-22T21:21:30;14.00;;;6.03;;
46110;SDS011;31849;55.992;37.252;2023-02-22T21:26:33;16.42;;;6.75;;
46110;SDS011;31849;55.992;37.252;2023-02-22T21:31:38;13.40;;;5.83;;
46110;SDS011;31849;55.992;37.252;2023-02-22T21:36:42;16.30;;;6.60;;
46110;SDS011;31849;55.992;37.252;2023-02-22T21:41:47;14.33;;;6.67;;
46110;SDS011;31849;55.992;37.252;2023-02-22T21:46:54;13.80;;;6.03;;
46110;SDS011;31849;55.992;37.252;2023-02-22T21:51:57;13.97;;;6.23;;
46110;SDS011;31849;55.992;37.252;2023-02-22T21:57:01;18.33;;;7.05;;
46110;SDS011;31849;55.992;37.252;2023-02-22T22:02:09;13.27;;;6.30;;
46110;SDS011;31849;55.992;37.252;2023-02-22T22:07:13;17.07;;;6.53;;
46110;SDS011;31849;55.992;37.252;2023-02-22T22:12:18;17.23;;;7.70;;
46110;SDS011;31849;55.992;37.252;2023-02-22T22:17:30;18.70;;;6.70;;
46110;SDS011;31849;55.992;37.252;2023-02-22T22:22:34;14.07;;;5.67;;
46110;SDS011;31849;55.992;37.252;2023-02-22T22:27:38;16.42;;;6.03;;
46110;SDS011;31849;55.992;37.252;2023-02-22T22:32:43;13.52;;;6.75;;
46110;SDS011;31849;55.992;37.252;2023-02-22T22:37:47;15.13;;;6.23;;
46110;SDS011;31849;55.992;37.252;2023-02-22T22:42:51;16.00;;;6.93;;
46110;SDS011;31849;55.992;37.252;2023-02-22T22:47:56;14.80;;;6.25;;
46110;SDS011;31849;55.992;37.252;2023-02-22T22:53:00;14.13;;;6.30;;
46110;SDS011;31849;55.992;37.252;2023-02-22T22:58:03;13.98;;;6.65;;
46110;SDS011;31849;55.992;37.252;2023-02-22T23:03:10;12.98;;;6.18;;
46110;SDS011;31849;55.992;37.252;2023-02-22T23:08:19;15.27;;;6.10;;
46110;SDS011;31849;55.992;37.252;2023-02-22T23:13:29;13.23;;;6.33;;
46110;SDS011;31849;55.992;37.252;2023-02-22T23:18:35;15.88;;;5.85;;
46110;SDS011;31849;55.992;37.252;2023-02-22T23:23:38;14.57;;;6.07;;
46110;SDS011;31849;55.992;37.252;2023-02-22T23:28:42;18.67;;;7.32;;
46110;SDS011;31849;55.992;37.252;2023-02-22T23:33:48;13.90;;;5.90;;
46110;SDS011;31849;55.992;37.252;2023-02-22T23:38:52;14.87;;;6.23;;
46110;SDS011;31849;55.992;37.252;2023-02-22T23:49:02;14.25;;;6.72;;
46110;SDS011;31849;55.992;37.252;2023-02-22T23:54:08;17.23;;;6.00;;
46110;SDS011;31849;55.992;37.252;2023-02-22T23:59:14;12.53;;;5.40;;
